sensor_id;sensor_type;location;lat;lon;timestamp;P1;durP1;ratioP1;P2;durP2;ratioP2
8007;SDS011;4049;49.468;11.200;2022-08-21T00:00:21;5.87;;;3.70;;
8007;SDS011;4049;49.468;11.200;2022-08-21T00:02:51;5.93;;;3.97;;
8007;SDS011;4049;49.468;11.200;2022-08-21T00:05:21;6.77;;;3.87;;
8007;SDS011;4049;49.468;11.200;2022-08-21T00:07:48;5.17;;;3.60;;
8007;SDS011;4049;49.468;11.200;2022-08-21T00:10:15;5.67;;;3.60;;
8007;SDS011;4049;49.468;11.200;2022-08-21T00:12:43;7.30;;;4.10;;
8007;SDS011;4049;49.468;11.200;2022-08-21T00:15:11;5.37;;;4.10;;
8007;SDS011;4049;49.468;11.200;2022-08-21T00:17:41;5.20;;;3.83;;
8007;SDS011;4049;49.468;11.200;2022-08-21T00:20:09;4.33;;;3.90;;
8007;SDS011;4049;49.468;11.200;2022-08-21T00:22:39;7.10;;;3.80;;
8007;SDS011;4049;49.468;11.200;2022-08-21T00:25:07;4.43;;;3.50;;
8007;SDS011;4049;49.468;11.200;2022-08-21T00:27:35;4.23;;;3.33;;
8007;SDS011;4049;49.468;11.200;2022-08-21T00:30:03;5.40;;;4.00;;
8007;SDS011;4049;49.468;11.200;2022-08-21T00:32:32;5.43;;;3.67;;
8007;SDS011;4049;49.468;11.200;2022-08-21T00:35:00;5.93;;;3.80;;
8007;SDS011;4049;49.468;11.200;2022-08-21T00:37:27;5.87;;;3.87;;
8007;SDS011;4049;49.468;11.200;2022-08-21T00:39:54;4.67;;;3.87;;
8007;SDS011;4049;49.468;11.200;2022-08-21T00:42:21;5.03;;;3.73;;
8007;SDS011;4049;49.468;11.200;2022-08-21T00:44:49;6.73;;;4.27;;
8007;SDS011;4049;49.468;11.200;2022-08-21T00:47:16;6.60;;;4.37;;
8007;SDS011;4049;49.468;11.200;2022-08-21T00:49:44;6.67;;;4.67;;
8007;SDS011;4049;49.468;11.200;2022-08-21T00:52:13;6.73;;;4.20;;
8007;SDS011;4049;49.468;11.200;2022-08-21T00:54:43;9.00;;;5.13;;
8007;SDS011;4049;49.468;11.200;2022-08-21T00:57:13;7.57;;;4.93;;
8007;SDS011;4049;49.468;11.200;2022-08-21T00:59:43;8.23;;;4.80;;
8007;SDS011;4049;49.468;11.200;2022-08-21T01:02:14;8.37;;;4.70;;
8007;SDS011;4049;49.468;11.200;2022-08-21T01:04:42;9.97;;;5.63;;
8007;SDS011;4049;49.468;11.200;2022-08-21T01:07:10;8.20;;;4.97;;
8007;SDS011;4049;49.468;11.200;2022-08-21T01:09:39;9.23;;;4.87;;
8007;SDS011;4049;49.468;11.200;2022-08-21T01:12:07;8.37;;;5.10;;
8007;SDS011;4049;49.468;11.200;2022-08-21T01:14:35;7.97;;;5.00;;
8007;SDS011;4049;49.468;11.200;2022-08-21T01:17:02;8.30;;;4.50;;
8007;SDS011;4049;49.468;11.200;2022-08-21T01:19:30;6.77;;;4.60;;
8007;SDS011;4049;49.468;11.200;2022-08-21T01:22:00;8.10;;;4.87;;
8007;SDS011;4049;49.468;11.200;2022-08-21T01:24:27;8.87;;;5.03;;
8007;SDS011;4049;49.468;11.200;2022-08-21T01:26:56;6.67;;;4.23;;
8007;SDS011;4049;49.468;11.200;2022-08-21T01:29:26;6.70;;;4.33;;
8007;SDS011;4049;49.468;11.200;2022-08-21T01:31:58;8.87;;;4.97;;
8007;SDS011;4049;49.468;11.200;2022-08-21T01:34:25;5.93;;;4.13;;
8007;SDS011;4049;49.468;11.200;2022-08-21T01:36:52;6.07;;;4.07;;
8007;SDS011;4049;49.468;11.200;2022-08-21T01:39:21;6.30;;;3.93;;
8007;SDS011;4049;49.468;11.200;2022-08-21T01:41:48;5.97;;;4.30;;
8007;SDS011;4049;49.468;11.200;2022-08-21T01:44:15;7.83;;;4.30;;
8007;SDS011;4049;49.468;11.200;2022-08-21T01:46:42;9.47;;;4.13;;
8007;SDS011;4049;49.468;11.200;2022-08-21T01:49:08;6.43;;;4.20;;
8007;SDS011;4049;49.468;11.200;2022-08-21T01:51:35;6.07;;;4.37;;
8007;SDS011;4049;49.468;11.200;2022-08-21T01:54:02;6.20;;;3.93;;
8007;SDS011;4049;49.468;11.200;2022-08-21T01:56:34;5.30;;;3.90;;
8007;SDS011;4049;49.468;11.200;2022-08-21T01:59:03;6.17;;;3.93;;
8007;SDS011;4049;49.468;11.200;2022-08-21T02:01:30;5.97;;;4.40;;
8007;SDS011;4049;49.468;11.200;2022-08-21T02:03:57;5.57;;;3.70;;
8007;SDS011;4049;49.468;11.200;2022-08-21T02:06:25;8.23;;;3.90;;
8007;SDS011;4049;49.468;11.200;2022-08-21T02:08:53;6.20;;;4.40;;
8007;SDS011;4049;49.468;11.200;2022-08-21T02:11:20;6.80;;;4.17;;
8007;SDS011;4049;49.468;11.200;2022-08-21T02:13:48;6.30;;;4.50;;
8007;SDS011;4049;49.468;11.200;2022-08-21T02:16:15;6.27;;;4.40;;
8007;SDS011;4049;49.468;11.200;2022-08-21T02:18:43;7.60;;;4.57;;
8007;SDS011;4049;49.468;11.200;2022-08-21T02:21:10;7.03;;;4.50;;
8007;SDS011;4049;49.468;11.200;2022-08-21T02:23:36;7.17;;;4.83;;
8007;SDS011;4049;49.468;11.200;2022-08-21T02:26:05;6.70;;;4.40;;
8007;SDS011;4049;49.468;11.200;2022-08-21T02:28:33;5.73;;;4.20;;
8007;SDS011;4049;49.468;11.200;2022-08-21T02:31:03;6.20;;;4.40;;
8007;SDS011;4049;49.468;11.200;2022-08-21T02:33:31;7.40;;;4.50;;
8007;SDS011;4049;49.468;11.200;2022-08-21T02:35:58;6.33;;;4.57;;
8007;SDS011;4049;49.468;11.200;2022-08-21T02:38:28;7.47;;;4.70;;
8007;SDS011;4049;49.468;11.200;2022-08-21T02:40:58;6.27;;;4.37;;
8007;SDS011;4049;49.468;11.200;2022-08-21T02:43:26;7.00;;;4.60;;
8007;SDS011;4049;49.468;11.200;2022-08-21T02:45:54;5.80;;;3.77;;
8007;SDS011;4049;49.468;11.200;2022-08-21T02:48:24;7.73;;;4.30;;
8007;SDS011;4049;49.468;11.200;2022-08-21T02:50:53;6.47;;;4.53;;
8007;SDS011;4049;49.468;11.200;2022-08-21T02:53:21;6.73;;;4.10;;
8007;SDS011;4049;49.468;11.200;2022-08-21T02:55:49;6.80;;;4.53;;
8007;SDS011;4049;49.468;11.200;2022-08-21T02:58:18;5.17;;;3.97;;
8007;SDS011;4049;49.468;11.200;2022-08-21T03:00:47;5.73;;;4.33;;
8007;SDS011;4049;49.468;11.200;2022-08-21T03:03:14;5.50;;;4.17;;
8007;SDS011;4049;49.468;11.200;2022-08-21T03:05:43;5.00;;;3.90;;
8007;SDS011;4049;49.468;11.200;2022-08-21T03:08:12;5.87;;;3.90;;
8007;SDS011;4049;49.468;11.200;2022-08-21T03:10:42;6.30;;;4.17;;
8007;SDS011;4049;49.468;11.200;2022-08-21T03:13:10;5.80;;;3.93;;
8007;SDS011;4049;49.468;11.200;2022-08-21T03:15:37;6.77;;;3.70;;
8007;SDS011;4049;49.468;11.200;2022-08-21T03:18:05;4.97;;;3.67;;
8007;SDS011;4049;49.468;11.200;2022-08-21T03:20:33;6.57;;;4.30;;
8007;SDS011;4049;49.468;11.200;2022-08-21T03:23:03;5.70;;;4.30;;
8007;SDS011;4049;49.468;11.200;2022-08-21T03:25:31;7.23;;;5.07;;
8007;SDS011;4049;49.468;11.200;2022-08-21T03:27:59;6.47;;;4.40;;
8007;SDS011;4049;49.468;11.200;2022-08-21T03:30:26;9.93;;;5.10;;
8007;SDS011;4049;49.468;11.200;2022-08-21T03:32:53;6.53;;;4.70;;
8007;SDS011;4049;49.468;11.200;2022-08-21T03:35:20;7.87;;;4.53;;
8007;SDS011;4049;49.468;11.200;2022-08-21T03:37:47;9.30;;;4.80;;
8007;SDS011;4049;49.468;11.200;2022-08-21T03:40:17;7.77;;;4.70;;
8007;SDS011;4049;49.468;11.200;2022-08-21T03:42:45;8.37;;;5.00;;
8007;SDS011;4049;49.468;11.200;2022-08-21T03:45:13;8.00;;;4.70;;
8007;SDS011;4049;49.468;11.200;2022-08-21T03:47:49;8.80;;;5.37;;
8007;SDS011;4049;49.468;11.200;2022-08-21T03:50:17;9.90;;;4.80;;
8007;SDS011;4049;49.468;11.200;2022-08-21T03:52:44;6.43;;;4.03;;
8007;SDS011;4049;49.468;11.200;2022-08-21T03:55:11;5.90;;;4.17;;
8007;SDS011;4049;49.468;11.200;2022-08-21T03:57:40;7.90;;;4.60;;
8007;SDS011;4049;49.468;11.200;2022-08-21T04:00:07;7.63;;;4.80;;
8007;SDS011;4049;49.468;11.200;2022-08-21T04:02:37;7.00;;;4.60;;
8007;SDS011;4049;49.468;11.200;2022-08-21T04:05:04;8.07;;;5.20;;
8007;SDS011;4049;49.468;11.200;2022-08-21T04:07:32;8.30;;;5.83;;
8007;SDS011;4049;49.468;11.200;2022-08-21T04:10:00;8.43;;;4.90;;
8007;SDS011;4049;49.468;11.200;2022-08-21T04:12:27;7.03;;;4.77;;
8007;SDS011;4049;49.468;11.200;2022-08-21T04:14:56;8.43;;;4.90;;
8007;SDS011;4049;49.468;11.200;2022-08-21T04:17:23;9.17;;;5.37;;
8007;SDS011;4049;49.468;11.200;2022-08-21T04:19:50;9.40;;;5.07;;
8007;SDS011;4049;49.468;11.200;2022-08-21T04:22:17;10.87;;;5.37;;
8007;SDS011;4049;49.468;11.200;2022-08-21T04:24:44;8.90;;;5.50;;
8007;SDS011;4049;49.468;11.200;2022-08-21T04:27:11;13.20;;;5.53;;
8007;SDS011;4049;49.468;11.200;2022-08-21T04:29:38;8.07;;;5.00;;
8007;SDS011;4049;49.468;11.200;2022-08-21T04:32:06;10.57;;;4.93;;
8007;SDS011;4049;49.468;11.200;2022-08-21T04:34:33;8.63;;;4.97;;
8007;SDS011;4049;49.468;11.200;2022-08-21T04:37:00;8.80;;;5.47;;
8007;SDS011;4049;49.468;11.200;2022-08-21T04:39:27;12.27;;;5.90;;
8007;SDS011;4049;49.468;11.200;2022-08-21T04:41:54;6.83;;;5.53;;
8007;SDS011;4049;49.468;11.200;2022-08-21T04:44:21;11.20;;;6.03;;
8007;SDS011;4049;49.468;11.200;2022-08-21T04:46:48;8.47;;;5.63;;
8007;SDS011;4049;49.468;11.200;2022-08-21T04:49:16;9.90;;;6.27;;
8007;SDS011;4049;49.468;11.200;2022-08-21T04:51:44;8.50;;;5.03;;
8007;SDS011;4049;49.468;11.200;2022-08-21T04:54:12;11.47;;;5.60;;
8007;SDS011;4049;49.468;11.200;2022-08-21T04:56:44;9.53;;;6.13;;
8007;SDS011;4049;49.468;11.200;2022-08-21T04:59:15;8.67;;;5.40;;
8007;SDS011;4049;49.468;11.200;2022-08-21T05:01:47;9.73;;;5.23;;
8007;SDS011;4049;49.468;11.200;2022-08-21T05:04:17;8.53;;;5.50;;
8007;SDS011;4049;49.468;11.200;2022-08-21T05:06:47;7.17;;;4.80;;
8007;SDS011;4049;49.468;11.200;2022-08-21T05:09:16;8.90;;;5.40;;
8007;SDS011;4049;49.468;11.200;2022-08-21T05:11:44;8.60;;;5.13;;
8007;SDS011;4049;49.468;11.200;2022-08-21T05:14:12;9.00;;;5.47;;
8007;SDS011;4049;49.468;11.200;2022-08-21T05:16:39;9.10;;;4.80;;
8007;SDS011;4049;49.468;11.200;2022-08-21T05:19:07;8.60;;;4.73;;
8007;SDS011;4049;49.468;11.200;2022-08-21T05:21:37;6.87;;;4.37;;
8007;SDS011;4049;49.468;11.200;2022-08-21T05:24:06;7.90;;;4.30;;
8007;SDS011;4049;49.468;11.200;2022-08-21T05:26:33;6.47;;;4.20;;
8007;SDS011;4049;49.468;11.200;2022-08-21T05:29:01;9.53;;;4.67;;
8007;SDS011;4049;49.468;11.200;2022-08-21T05:31:28;9.83;;;5.13;;
8007;SDS011;4049;49.468;11.200;2022-08-21T05:33:55;8.80;;;5.27;;
8007;SDS011;4049;49.468;11.200;2022-08-21T05:36:22;9.77;;;5.23;;
8007;SDS011;4049;49.468;11.200;2022-08-21T05:38:51;8.70;;;5.53;;
8007;SDS011;4049;49.468;11.200;2022-08-21T05:41:18;8.73;;;5.47;;
8007;SDS011;4049;49.468;11.200;2022-08-21T05:43:45;7.83;;;4.90;;
8007;SDS011;4049;49.468;11.200;2022-08-21T05:46:12;7.77;;;5.20;;
8007;SDS011;4049;49.468;11.200;2022-08-21T05:48:39;7.07;;;5.07;;
8007;SDS011;4049;49.468;11.200;2022-08-21T05:51:06;9.53;;;5.57;;
8007;SDS011;4049;49.468;11.200;2022-08-21T05:53:35;9.13;;;4.97;;
8007;SDS011;4049;49.468;11.200;2022-08-21T05:56:04;9.03;;;5.03;;
8007;SDS011;4049;49.468;11.200;2022-08-21T05:58:32;8.93;;;5.53;;
8007;SDS011;4049;49.468;11.200;2022-08-21T06:01:00;6.63;;;4.87;;
8007;SDS011;4049;49.468;11.200;2022-08-21T06:03:28;6.83;;;4.77;;
8007;SDS011;4049;49.468;11.200;2022-08-21T06:05:59;6.93;;;4.57;;
8007;SDS011;4049;49.468;11.200;2022-08-21T06:08:26;8.50;;;5.00;;
8007;SDS011;4049;49.468;11.200;2022-08-21T06:10:55;8.50;;;5.93;;
8007;SDS011;4049;49.468;11.200;2022-08-21T06:13:25;7.57;;;5.00;;
8007;SDS011;4049;49.468;11.200;2022-08-21T06:16:00;9.60;;;5.70;;
8007;SDS011;4049;49.468;11.200;2022-08-21T06:18:28;8.10;;;5.37;;
8007;SDS011;4049;49.468;11.200;2022-08-21T06:20:55;9.60;;;5.27;;
8007;SDS011;4049;49.468;11.200;2022-08-21T06:23:22;7.63;;;5.90;;
8007;SDS011;4049;49.468;11.200;2022-08-21T06:25:49;9.33;;;5.63;;
8007;SDS011;4049;49.468;11.200;2022-08-21T06:28:17;10.90;;;6.53;;
8007;SDS011;4049;49.468;11.200;2022-08-21T06:30:45;10.67;;;6.23;;
8007;SDS011;4049;49.468;11.200;2022-08-21T06:33:12;12.00;;;6.67;;
8007;SDS011;4049;49.468;11.200;2022-08-21T06:35:39;9.73;;;6.50;;
8007;SDS011;4049;49.468;11.200;2022-08-21T06:38:06;11.97;;;6.63;;
8007;SDS011;4049;49.468;11.200;2022-08-21T06:40:33;10.23;;;6.50;;
8007;SDS011;4049;49.468;11.200;2022-08-21T06:43:05;9.17;;;6.23;;
8007;SDS011;4049;49.468;11.200;2022-08-21T06:45:33;12.00;;;6.60;;
8007;SDS011;4049;49.468;11.200;2022-08-21T06:48:01;10.77;;;7.10;;
8007;SDS011;4049;49.468;11.200;2022-08-21T06:50:29;11.03;;;7.43;;
8007;SDS011;4049;49.468;11.200;2022-08-21T06:53:00;9.90;;;6.27;;
8007;SDS011;4049;49.468;11.200;2022-08-21T06:55:28;10.90;;;6.53;;
8007;SDS011;4049;49.468;11.200;2022-08-21T06:57:55;10.70;;;6.97;;
8007;SDS011;4049;49.468;11.200;2022-08-21T07:00:22;10.33;;;6.43;;
8007;SDS011;4049;49.468;11.200;2022-08-21T07:02:49;11.67;;;6.80;;
8007;SDS011;4049;49.468;11.200;2022-08-21T07:05:18;11.20;;;6.93;;
8007;SDS011;4049;49.468;11.200;2022-08-21T07:07:45;11.87;;;7.17;;
8007;SDS011;4049;49.468;11.200;2022-08-21T07:10:12;11.65;;;7.20;;
8007;SDS011;4049;49.468;11.200;2022-08-21T07:12:40;11.77;;;7.03;;
8007;SDS011;4049;49.468;11.200;2022-08-21T07:15:07;11.47;;;6.67;;
8007;SDS011;4049;49.468;11.200;2022-08-21T07:17:35;10.13;;;6.70;;
8007;SDS011;4049;49.468;11.200;2022-08-21T07:20:03;11.43;;;7.17;;
8007;SDS011;4049;49.468;11.200;2022-08-21T07:22:32;12.27;;;7.80;;
8007;SDS011;4049;49.468;11.200;2022-08-21T07:24:59;11.10;;;7.50;;
8007;SDS011;4049;49.468;11.200;2022-08-21T07:27:26;11.17;;;7.17;;
8007;SDS011;4049;49.468;11.200;2022-08-21T07:29:54;14.27;;;8.30;;
8007;SDS011;4049;49.468;11.200;2022-08-21T07:32:21;11.37;;;6.93;;
8007;SDS011;4049;49.468;11.200;2022-08-21T07:34:49;12.63;;;7.83;;
8007;SDS011;4049;49.468;11.200;2022-08-21T07:37:16;10.07;;;7.37;;
8007;SDS011;4049;49.468;11.200;2022-08-21T07:39:44;10.83;;;7.23;;
8007;SDS011;4049;49.468;11.200;2022-08-21T07:42:14;12.03;;;8.00;;
8007;SDS011;4049;49.468;11.200;2022-08-21T07:44:41;12.17;;;7.87;;
8007;SDS011;4049;49.468;11.200;2022-08-21T07:47:08;11.40;;;7.60;;
8007;SDS011;4049;49.468;11.200;2022-08-21T07:49:34;11.80;;;6.93;;
8007;SDS011;4049;49.468;11.200;2022-08-21T07:52:02;15.73;;;8.47;;
8007;SDS011;4049;49.468;11.200;2022-08-21T07:54:30;11.77;;;7.10;;
8007;SDS011;4049;49.468;11.200;2022-08-21T07:56:58;10.53;;;7.23;;
8007;SDS011;4049;49.468;11.200;2022-08-21T07:59:25;13.33;;;8.67;;
8007;SDS011;4049;49.468;11.200;2022-08-21T08:01:52;11.47;;;7.97;;
8007;SDS011;4049;49.468;11.200;2022-08-21T08:04:19;12.83;;;8.70;;
8007;SDS011;4049;49.468;11.200;2022-08-21T08:06:46;14.67;;;8.67;;
8007;SDS011;4049;49.468;11.200;2022-08-21T08:09:13;15.27;;;9.43;;
8007;SDS011;4049;49.468;11.200;2022-08-21T08:11:41;13.93;;;8.67;;
8007;SDS011;4049;49.468;11.200;2022-08-21T08:14:10;14.10;;;9.00;;
8007;SDS011;4049;49.468;11.200;2022-08-21T08:16:37;13.50;;;8.83;;
8007;SDS011;4049;49.468;11.200;2022-08-21T08:19:04;15.30;;;9.13;;
8007;SDS011;4049;49.468;11.200;2022-08-21T08:21:31;14.93;;;9.03;;
8007;SDS011;4049;49.468;11.200;2022-08-21T08:23:59;14.33;;;9.23;;
8007;SDS011;4049;49.468;11.200;2022-08-21T08:26:26;14.70;;;9.33;;
8007;SDS011;4049;49.468;11.200;2022-08-21T08:28:55;16.10;;;9.23;;
8007;SDS011;4049;49.468;11.200;2022-08-21T08:31:23;17.03;;;10.97;;
8007;SDS011;4049;49.468;11.200;2022-08-21T08:33:50;13.20;;;9.20;;
8007;SDS011;4049;49.468;11.200;2022-08-21T08:36:17;14.10;;;9.00;;
8007;SDS011;4049;49.468;11.200;2022-08-21T08:38:45;15.93;;;10.00;;
8007;SDS011;4049;49.468;11.200;2022-08-21T08:41:13;17.47;;;10.50;;
8007;SDS011;4049;49.468;11.200;2022-08-21T08:43:42;15.90;;;10.00;;
8007;SDS011;4049;49.468;11.200;2022-08-21T08:46:16;16.10;;;10.40;;
8007;SDS011;4049;49.468;11.200;2022-08-21T08:48:49;14.97;;;9.30;;
8007;SDS011;4049;49.468;11.200;2022-08-21T08:51:22;14.83;;;9.97;;
8007;SDS011;4049;49.468;11.200;2022-08-21T08:53:54;15.33;;;9.50;;
8007;SDS011;4049;49.468;11.200;2022-08-21T08:56:27;14.30;;;9.70;;
8007;SDS011;4049;49.468;11.200;2022-08-21T08:58:56;13.00;;;9.07;;
8007;SDS011;4049;49.468;11.200;2022-08-21T09:01:27;13.27;;;9.10;;
8007;SDS011;4049;49.468;11.200;2022-08-21T09:03:56;16.87;;;11.20;;
8007;SDS011;4049;49.468;11.200;2022-08-21T09:06:37;12.63;;;8.40;;
8007;SDS011;4049;49.468;11.200;2022-08-21T09:09:22;13.63;;;9.20;;
8007;SDS011;4049;49.468;11.200;2022-08-21T09:11:57;14.93;;;10.10;;
8007;SDS011;4049;49.468;11.200;2022-08-21T09:14:32;17.50;;;10.10;;
8007;SDS011;4049;49.468;11.200;2022-08-21T09:17:16;15.80;;;10.10;;
8007;SDS011;4049;49.468;11.200;2022-08-21T09:20:03;13.57;;;9.10;;
8007;SDS011;4049;49.468;11.200;2022-08-21T09:22:43;15.37;;;9.77;;
8007;SDS011;4049;49.468;11.200;2022-08-21T09:25:18;13.67;;;9.27;;
8007;SDS011;4049;49.468;11.200;2022-08-21T09:27:48;13.70;;;9.57;;
8007;SDS011;4049;49.468;11.200;2022-08-21T09:30:16;12.53;;;8.73;;
8007;SDS011;4049;49.468;11.200;2022-08-21T09:32:45;12.43;;;8.97;;
8007;SDS011;4049;49.468;11.200;2022-08-21T09:35:15;14.17;;;9.83;;
8007;SDS011;4049;49.468;11.200;2022-08-21T09:37:46;13.87;;;9.80;;
8007;SDS011;4049;49.468;11.200;2022-08-21T09:40:26;13.10;;;9.77;;
8007;SDS011;4049;49.468;11.200;2022-08-21T09:42:59;13.77;;;9.43;;
8007;SDS011;4049;49.468;11.200;2022-08-21T09:45:29;14.80;;;9.87;;
8007;SDS011;4049;49.468;11.200;2022-08-21T09:48:07;14.00;;;9.40;;
8007;SDS011;4049;49.468;11.200;2022-08-21T09:50:36;13.20;;;9.30;;
8007;SDS011;4049;49.468;11.200;2022-08-21T09:53:03;13.70;;;9.57;;
8007;SDS011;4049;49.468;11.200;2022-08-21T09:55:32;13.47;;;9.00;;
8007;SDS011;4049;49.468;11.200;2022-08-21T09:58:29;12.87;;;8.77;;
8007;SDS011;4049;49.468;11.200;2022-08-21T10:00:57;12.53;;;8.63;;
8007;SDS011;4049;49.468;11.200;2022-08-21T10:03:26;12.37;;;9.10;;
8007;SDS011;4049;49.468;11.200;2022-08-21T10:05:56;12.17;;;9.10;;
8007;SDS011;4049;49.468;11.200;2022-08-21T10:08:25;12.07;;;7.80;;
8007;SDS011;4049;49.468;11.200;2022-08-21T10:10:55;13.37;;;8.47;;
8007;SDS011;4049;49.468;11.200;2022-08-21T10:13:29;12.57;;;8.43;;
8007;SDS011;4049;49.468;11.200;2022-08-21T10:16:09;9.93;;;8.10;;
8007;SDS011;4049;49.468;11.200;2022-08-21T10:18:42;10.20;;;7.73;;
8007;SDS011;4049;49.468;11.200;2022-08-21T10:21:17;8.60;;;6.43;;
8007;SDS011;4049;49.468;11.200;2022-08-21T10:23:54;8.40;;;6.70;;
8007;SDS011;4049;49.468;11.200;2022-08-21T10:26:32;10.67;;;7.60;;
8007;SDS011;4049;49.468;11.200;2022-08-21T10:29:18;9.50;;;7.30;;
8007;SDS011;4049;49.468;11.200;2022-08-21T10:32:07;8.90;;;6.77;;
8007;SDS011;4049;49.468;11.200;2022-08-21T10:34:45;9.80;;;7.77;;
8007;SDS011;4049;49.468;11.200;2022-08-21T10:37:25;8.63;;;6.60;;
8007;SDS011;4049;49.468;11.200;2022-08-21T10:40:05;8.40;;;6.23;;
8007;SDS011;4049;49.468;11.200;2022-08-21T10:42:41;7.53;;;6.43;;
8007;SDS011;4049;49.468;11.200;2022-08-21T10:45:22;8.70;;;6.38;;
8007;SDS011;4049;49.468;11.200;2022-08-21T10:48:01;7.38;;;5.90;;
8007;SDS011;4049;49.468;11.200;2022-08-21T10:50:31;7.80;;;6.35;;
8007;SDS011;4049;49.468;11.200;2022-08-21T10:53:08;7.00;;;5.85;;
8007;SDS011;4049;49.468;11.200;2022-08-21T10:55:48;7.25;;;5.70;;
8007;SDS011;4049;49.468;11.200;2022-08-21T10:58:29;6.63;;;5.35;;
8007;SDS011;4049;49.468;11.200;2022-08-21T11:00:58;6.70;;;5.07;;
8007;SDS011;4049;49.468;11.200;2022-08-21T11:03:38;5.75;;;5.10;;
8007;SDS011;4049;49.468;11.200;2022-08-21T11:06:08;7.07;;;5.50;;
8007;SDS011;4049;49.468;11.200;2022-08-21T11:08:41;6.57;;;5.05;;
8007;SDS011;4049;49.468;11.200;2022-08-21T11:11:11;8.13;;;5.80;;
8007;SDS011;4049;49.468;11.200;2022-08-21T11:13:42;6.30;;;5.70;;
8007;SDS011;4049;49.468;11.200;2022-08-21T11:16:16;6.30;;;5.00;;
8007;SDS011;4049;49.468;11.200;2022-08-21T11:18:50;5.53;;;4.85;;
8007;SDS011;4049;49.468;11.200;2022-08-21T11:21:25;6.25;;;5.03;;
8007;SDS011;4049;49.468;11.200;2022-08-21T11:23:59;5.05;;;4.43;;
8007;SDS011;4049;49.468;11.200;2022-08-21T11:26:36;6.25;;;4.35;;
8007;SDS011;4049;49.468;11.200;2022-08-21T11:29:10;5.13;;;4.63;;
8007;SDS011;4049;49.468;11.200;2022-08-21T11:31:46;5.65;;;4.78;;
8007;SDS011;4049;49.468;11.200;2022-08-21T11:34:26;4.47;;;4.05;;
8007;SDS011;4049;49.468;11.200;2022-08-21T11:37:04;7.47;;;4.38;;
8007;SDS011;4049;49.468;11.200;2022-08-21T11:39:38;5.70;;;4.35;;
8007;SDS011;4049;49.468;11.200;2022-08-21T11:42:12;5.65;;;4.45;;
8007;SDS011;4049;49.468;11.200;2022-08-21T11:44:48;4.38;;;3.88;;
8007;SDS011;4049;49.468;11.200;2022-08-21T11:47:22;5.25;;;3.95;;
8007;SDS011;4049;49.468;11.200;2022-08-21T11:50:06;4.53;;;4.10;;
8007;SDS011;4049;49.468;11.200;2022-08-21T11:52:42;5.40;;;4.35;;
8007;SDS011;4049;49.468;11.200;2022-08-21T11:55:14;4.47;;;4.03;;
8007;SDS011;4049;49.468;11.200;2022-08-21T11:57:46;5.75;;;4.30;;
8007;SDS011;4049;49.468;11.200;2022-08-21T12:00:20;4.03;;;3.63;;
8007;SDS011;4049;49.468;11.200;2022-08-21T12:02:52;4.90;;;3.85;;
8007;SDS011;4049;49.468;11.200;2022-08-21T12:05:23;4.32;;;3.70;;
8007;SDS011;4049;49.468;11.200;2022-08-21T12:08:06;3.83;;;3.42;;
8007;SDS011;4049;49.468;11.200;2022-08-21T12:10:40;4.10;;;3.70;;
8007;SDS011;4049;49.468;11.200;2022-08-21T12:13:22;3.50;;;3.20;;
8007;SDS011;4049;49.468;11.200;2022-08-21T12:15:52;4.00;;;3.60;;
8007;SDS011;4049;49.468;11.200;2022-08-21T12:18:21;4.53;;;3.70;;
8007;SDS011;4049;49.468;11.200;2022-08-21T12:20:57;3.80;;;3.40;;
8007;SDS011;4049;49.468;11.200;2022-08-21T12:23:31;4.07;;;3.67;;
8007;SDS011;4049;49.468;11.200;2022-08-21T12:28:51;5.13;;;3.13;;
8007;SDS011;4049;49.468;11.200;2022-08-21T12:31:29;3.90;;;3.30;;
8007;SDS011;4049;49.468;11.200;2022-08-21T12:33:56;3.65;;;3.20;;
8007;SDS011;4049;49.468;11.200;2022-08-21T12:36:39;4.95;;;3.25;;
8007;SDS011;4049;49.468;11.200;2022-08-21T12:39:12;4.45;;;3.42;;
8007;SDS011;4049;49.468;11.200;2022-08-21T12:41:45;3.65;;;3.35;;
8007;SDS011;4049;49.468;11.200;2022-08-21T12:44:16;4.50;;;3.22;;
8007;SDS011;4049;49.468;11.200;2022-08-21T12:46:54;3.75;;;3.05;;
8007;SDS011;4049;49.468;11.200;2022-08-21T12:49:26;3.47;;;3.10;;
8007;SDS011;4049;49.468;11.200;2022-08-21T12:51:57;3.35;;;3.05;;
8007;SDS011;4049;49.468;11.200;2022-08-21T12:54:30;3.55;;;3.10;;
8007;SDS011;4049;49.468;11.200;2022-08-21T12:57:01;3.00;;;2.72;;
8007;SDS011;4049;49.468;11.200;2022-08-21T12:59:29;3.25;;;2.95;;
8007;SDS011;4049;49.468;11.200;2022-08-21T13:01:58;4.07;;;3.47;;
8007;SDS011;4049;49.468;11.200;2022-08-21T13:04:32;4.35;;;2.78;;
8007;SDS011;4049;49.468;11.200;2022-08-21T13:07:04;3.95;;;3.30;;
8007;SDS011;4049;49.468;11.200;2022-08-21T13:09:36;3.42;;;3.13;;
8007;SDS011;4049;49.468;11.200;2022-08-21T13:12:11;3.58;;;2.95;;
8007;SDS011;4049;49.468;11.200;2022-08-21T13:14:39;3.38;;;3.08;;
8007;SDS011;4049;49.468;11.200;2022-08-21T13:17:09;3.97;;;3.20;;
8007;SDS011;4049;49.468;11.200;2022-08-21T13:19:37;3.50;;;3.13;;
8007;SDS011;4049;49.468;11.200;2022-08-21T13:22:05;5.10;;;3.22;;
8007;SDS011;4049;49.468;11.200;2022-08-21T13:24:39;4.45;;;3.20;;
8007;SDS011;4049;49.468;11.200;2022-08-21T13:27:16;3.85;;;3.17;;
8007;SDS011;4049;49.468;11.200;2022-08-21T13:29:47;3.65;;;3.10;;
8007;SDS011;4049;49.468;11.200;2022-08-21T13:32:18;3.85;;;3.35;;
8007;SDS011;4049;49.468;11.200;2022-08-21T13:34:49;3.60;;;3.25;;
8007;SDS011;4049;49.468;11.200;2022-08-21T13:37:18;3.47;;;2.90;;
8007;SDS011;4049;49.468;11.200;2022-08-21T13:39:48;3.80;;;3.40;;
8007;SDS011;4049;49.468;11.200;2022-08-21T13:42:18;3.85;;;3.45;;
8007;SDS011;4049;49.468;11.200;2022-08-21T13:44:47;3.80;;;3.40;;
8007;SDS011;4049;49.468;11.200;2022-08-21T13:47:18;4.63;;;3.00;;
8007;SDS011;4049;49.468;11.200;2022-08-21T13:49:46;3.95;;;3.08;;
8007;SDS011;4049;49.468;11.200;2022-08-21T13:52:15;4.15;;;3.47;;
8007;SDS011;4049;49.468;11.200;2022-08-21T13:54:51;3.92;;;3.17;;
8007;SDS011;4049;49.468;11.200;2022-08-21T13:57:24;3.85;;;3.17;;
8007;SDS011;4049;49.468;11.200;2022-08-21T13:59:53;4.10;;;3.30;;
8007;SDS011;4049;49.468;11.200;2022-08-21T14:02:38;3.13;;;2.83;;
8007;SDS011;4049;49.468;11.200;2022-08-21T14:05:06;3.75;;;3.22;;
8007;SDS011;4049;49.468;11.200;2022-08-21T14:07:40;6.82;;;3.10;;
8007;SDS011;4049;49.468;11.200;2022-08-21T14:10:11;3.60;;;3.17;;
8007;SDS011;4049;49.468;11.200;2022-08-21T14:12:43;3.13;;;2.83;;
8007;SDS011;4049;49.468;11.200;2022-08-21T14:15:15;3.28;;;2.78;;
8007;SDS011;4049;49.468;11.200;2022-08-21T14:17:44;4.20;;;3.10;;
8007;SDS011;4049;49.468;11.200;2022-08-21T14:20:12;3.38;;;2.90;;
8007;SDS011;4049;49.468;11.200;2022-08-21T14:22:53;2.90;;;2.60;;
8007;SDS011;4049;49.468;11.200;2022-08-21T14:25:27;3.33;;;3.00;;
8007;SDS011;4049;49.468;11.200;2022-08-21T14:28:03;6.90;;;2.75;;
8007;SDS011;4049;49.468;11.200;2022-08-21T14:30:37;4.28;;;2.60;;
8007;SDS011;4049;49.468;11.200;2022-08-21T14:33:08;46.88;;;7.20;;
8007;SDS011;4049;49.468;11.200;2022-08-21T14:35:38;19.15;;;4.53;;
8007;SDS011;4049;49.468;11.200;2022-08-21T14:38:11;197.32;;;14.00;;
8007;SDS011;4049;49.468;11.200;2022-08-21T14:40:39;16.75;;;3.83;;
8007;SDS011;4049;49.468;11.200;2022-08-21T14:43:08;4.20;;;2.85;;
8007;SDS011;4049;49.468;11.200;2022-08-21T14:45:35;4.35;;;2.75;;
8007;SDS011;4049;49.468;11.200;2022-08-21T14:48:06;4.38;;;2.60;;
8007;SDS011;4049;49.468;11.200;2022-08-21T14:50:33;3.08;;;2.70;;
8007;SDS011;4049;49.468;11.200;2022-08-21T14:53:00;3.75;;;2.55;;
8007;SDS011;4049;49.468;11.200;2022-08-21T14:55:29;2.55;;;2.35;;
8007;SDS011;4049;49.468;11.200;2022-08-21T14:58:19;4.30;;;3.25;;
8007;SDS011;4049;49.468;11.200;2022-08-21T15:00:47;3.00;;;2.70;;
8007;SDS011;4049;49.468;11.200;2022-08-21T15:03:15;4.35;;;2.90;;
8007;SDS011;4049;49.468;11.200;2022-08-21T15:05:42;3.33;;;2.63;;
8007;SDS011;4049;49.468;11.200;2022-08-21T15:08:09;3.60;;;2.50;;
8007;SDS011;4049;49.468;11.200;2022-08-21T15:10:36;3.15;;;2.65;;
8007;SDS011;4049;49.468;11.200;2022-08-21T15:13:03;3.20;;;2.90;;
8007;SDS011;4049;49.468;11.200;2022-08-21T15:15:34;3.72;;;2.65;;
8007;SDS011;4049;49.468;11.200;2022-08-21T15:18:07;2.58;;;2.28;;